Aurelia, North Dakota
Current Conditions -  °F | °C
As of 2:35 AM on Sunday 26 Oct 2014 (Local Time) from K08D Reporting Station
Clear Clear  
Wind Chill: 39°   Ceiling: Unl
Heat Index: 46°   Visibility: 10mi
Dew Point: 32°   Wind: 18mph
Humidity: 57%   Direction: 140°SE
Pressure: 29.72"   Gusts: 24mph
Location:  48.4598°N, 101.907°W
Report Text: K08D 260735Z AUTO 14016G21KT 10SM CLR 08/00 A2972 RMK AO2
Loading
Personal Weather Stations






























Interactive Weather Map
Tropical Storm Tracking
New forecast layout! Learn more

10-Day Weather Forecast

Advertisements
Track Severe Weather on mobile